createdAt,value
2022-10-22T00:00:50.661Z,86.90
2022-10-22T00:03:17.868Z,86.90
2022-10-22T00:05:45.017Z,86.80
2022-10-22T00:08:12.179Z,86.70
2022-10-22T00:10:39.444Z,86.40
2022-10-22T00:13:07.168Z,86.20
2022-10-22T00:15:34.394Z,86.10
2022-10-22T00:18:01.581Z,86.10
2022-10-22T00:20:28.923Z,86.00
2022-10-22T00:22:56.128Z,85.70
2022-10-22T00:25:23.416Z,85.90
2022-10-22T00:27:50.635Z,85.90
2022-10-22T00:30:17.876Z,85.70
2022-10-22T00:32:45.110Z,85.70
2022-10-22T00:35:12.407Z,85.80
2022-10-22T00:37:39.559Z,85.60
2022-10-22T00:40:07.374Z,85.60
2022-10-22T00:42:34.537Z,85.60
2022-10-22T00:45:26.172Z,85.40
2022-10-22T00:48:09.316Z,85.80
2022-10-22T00:50:41.493Z,85.60
2022-10-22T00:53:13.568Z,85.70
2022-10-22T00:55:43.610Z,85.60
2022-10-22T00:58:11.336Z,85.40
2022-10-22T01:00:38.658Z,85.40
2022-10-22T01:03:06.442Z,85.30
2022-10-22T01:05:57.553Z,85.40
2022-10-22T01:08:33.975Z,85.40
2022-10-22T01:11:07.470Z,85.40
2022-10-22T01:14:05.831Z,85.50
2022-10-22T01:16:46.460Z,85.60
2022-10-22T01:19:16.468Z,85.20
2022-10-22T01:21:47.707Z,85.20
2022-10-22T01:24:53.044Z,85.00
2022-10-22T01:27:47.898Z,84.80
2022-10-22T01:30:16.115Z,84.60
2022-10-22T01:33:10.671Z,83.80
2022-10-22T01:35:42.673Z,83.10
2022-10-22T01:38:12.548Z,82.70
2022-10-22T01:40:40.402Z,82.40
2022-10-22T01:43:10.808Z,82.00
2022-10-22T01:45:58.132Z,81.80
2022-10-22T01:49:06.280Z,81.20
2022-10-22T01:51:52.993Z,81.10
2022-10-22T01:54:29.891Z,80.50
2022-10-22T01:56:57.072Z,80.00
2022-10-22T01:59:46.180Z,80.00
2022-10-22T02:03:01.722Z,79.90
2022-10-22T02:05:44.632Z,80.40
2022-10-22T02:08:18.651Z,80.50
2022-10-22T02:10:47.647Z,79.80
2022-10-22T02:13:25.512Z,79.70
2022-10-22T02:15:53.474Z,79.50
2022-10-22T02:18:23.548Z,77.80
2022-10-22T02:20:51.415Z,75.90
2022-10-22T02:23:19.260Z,75.10
2022-10-22T02:25:51.517Z,75.40
2022-10-22T02:28:39.681Z,75.90
2022-10-22T02:31:29.168Z,76.00
2022-10-22T02:34:01.898Z,76.10
2022-10-22T02:36:29.220Z,76.80
2022-10-22T02:38:57.395Z,76.60
2022-10-22T02:41:24.865Z,75.60
2022-10-22T02:43:56.416Z,75.40
2022-10-22T02:46:24.879Z,75.50
2022-10-22T02:48:52.131Z,75.60
2022-10-22T02:51:19.367Z,75.70
2022-10-22T02:53:46.516Z,75.80
2022-10-22T02:56:14.356Z,76.80
2022-10-22T02:58:41.505Z,77.20
2022-10-22T03:01:10.375Z,77.70
2022-10-22T03:03:40.003Z,78.30
2022-10-22T03:06:07.444Z,78.10
2022-10-22T03:08:35.061Z,78.60
2022-10-22T03:11:02.167Z,78.90
2022-10-22T03:13:29.495Z,78.70
2022-10-22T03:15:56.760Z,78.70
2022-10-22T03:18:24.070Z,78.90
2022-10-22T03:20:51.164Z,78.50
2022-10-22T03:23:20.481Z,78.50
2022-10-22T03:25:50.841Z,78.20
2022-10-22T03:28:18.957Z,77.70
2022-10-22T03:30:46.112Z,77.90
2022-10-22T03:33:13.301Z,77.70
2022-10-22T03:35:45.475Z,77.60
2022-10-22T03:38:13.573Z,77.10
2022-10-22T03:40:42.904Z,77.50
2022-10-22T03:43:11.093Z,77.40
2022-10-22T03:48:10.573Z,77.20
2022-10-22T03:50:37.649Z,77.20
2022-10-22T03:53:05.009Z,76.90
2022-10-22T03:55:32.166Z,76.50
2022-10-22T03:57:59.415Z,76.40
2022-10-22T04:00:26.583Z,76.40
2022-10-22T04:02:53.782Z,76.70
2022-10-22T04:05:20.996Z,76.80
2022-10-22T04:07:48.241Z,77.00
2022-10-22T04:10:15.424Z,76.90
2022-10-22T04:12:42.654Z,77.00
2022-10-22T04:15:13.420Z,77.00
2022-10-22T04:17:40.915Z,77.10
2022-10-22T04:20:08.783Z,76.90
2022-10-22T04:22:37.177Z,77.20
2022-10-22T04:25:05.621Z,77.10
2022-10-22T04:27:33.988Z,76.90
2022-10-22T04:30:01.224Z,77.00
2022-10-22T04:32:28.482Z,76.90
2022-10-22T04:34:55.801Z,76.70
2022-10-22T04:37:25.345Z,76.70
2022-10-22T04:39:57.957Z,76.50
2022-10-22T04:42:25.805Z,76.60
2022-10-22T04:44:53.029Z,76.50
2022-10-22T04:47:20.212Z,76.20
2022-10-22T04:49:47.421Z,76.30
2022-10-22T04:52:14.565Z,76.50
2022-10-22T04:54:41.840Z,76.20
2022-10-22T04:57:08.952Z,76.10
2022-10-22T04:59:36.202Z,76.20
2022-10-22T05:02:03.903Z,75.50
2022-10-22T05:04:31.599Z,75.60
2022-10-22T05:06:58.823Z,75.10
2022-10-22T05:09:26.001Z,74.80
2022-10-22T05:11:53.642Z,74.50
2022-10-22T05:14:24.208Z,74.40
2022-10-22T05:16:52.585Z,74.50
2022-10-22T05:19:24.292Z,74.20
2022-10-22T05:21:53.948Z,73.90
2022-10-22T05:24:21.464Z,73.80
2022-10-22T05:26:52.944Z,73.70
2022-10-22T05:29:21.138Z,73.50
2022-10-22T05:31:48.372Z,73.60
2022-10-22T05:34:16.390Z,73.80
2022-10-22T05:36:44.716Z,73.60
2022-10-22T05:39:12.826Z,73.40
2022-10-22T05:41:40.289Z,73.40
2022-10-22T05:44:07.626Z,73.60
2022-10-22T05:46:36.675Z,73.10
2022-10-22T05:49:06.062Z,72.90
2022-10-22T05:51:35.426Z,73.00
2022-10-22T05:54:04.635Z,72.70
2022-10-22T05:56:32.867Z,72.80
2022-10-22T06:01:35.537Z,72.00
2022-10-22T06:04:06.886Z,72.00
2022-10-22T06:06:38.018Z,71.40
2022-10-22T06:09:15.224Z,71.30
2022-10-22T06:11:42.562Z,71.20
2022-10-22T06:14:10.854Z,71.00
2022-10-22T06:16:38.599Z,70.80
2022-10-22T06:19:06.579Z,70.20
2022-10-22T06:21:34.131Z,69.80
2022-10-22T06:24:02.458Z,69.50
2022-10-22T06:26:30.037Z,69.20
2022-10-22T06:28:57.888Z,68.90
2022-10-22T06:31:28.995Z,68.10
2022-10-22T06:33:57.495Z,67.20
2022-10-22T06:36:25.043Z,67.20
2022-10-22T06:38:54.326Z,67.10
2022-10-22T06:41:24.376Z,67.00
2022-10-22T06:43:55.966Z,66.60
2022-10-22T06:46:24.595Z,66.50
2022-10-22T06:48:55.003Z,65.30
2022-10-22T06:51:26.078Z,64.60
2022-10-22T06:53:54.977Z,64.60
2022-10-22T06:56:24.282Z,64.70
2022-10-22T06:59:00.578Z,65.00
2022-10-22T07:01:31.242Z,64.30
2022-10-22T07:03:59.171Z,63.90
2022-10-22T07:06:28.198Z,63.60
2022-10-22T07:08:57.287Z,62.70
2022-10-22T07:11:43.422Z,61.90
2022-10-22T07:14:14.123Z,61.30
2022-10-22T07:16:43.351Z,61.30
2022-10-22T07:19:10.695Z,60.50
2022-10-22T07:21:38.217Z,60.00
2022-10-22T07:24:05.679Z,59.70
2022-10-22T07:26:32.977Z,59.60
2022-10-22T07:29:01.281Z,59.60
2022-10-22T07:31:28.763Z,59.90
2022-10-22T07:34:05.503Z,58.70
2022-10-22T07:36:32.979Z,58.80
2022-10-22T07:39:01.278Z,58.60
2022-10-22T07:41:30.769Z,58.70
2022-10-22T07:43:59.387Z,58.90
2022-10-22T07:46:27.469Z,59.20
2022-10-22T07:48:55.046Z,59.10
2022-10-22T07:51:22.741Z,58.50
2022-10-22T07:53:49.957Z,58.40
2022-10-22T07:56:17.927Z,58.10
2022-10-22T07:58:45.425Z,58.00
2022-10-22T08:01:14.969Z,57.90
2022-10-22T08:03:42.762Z,57.30
2022-10-22T08:06:13.253Z,56.90
2022-10-22T08:08:42.484Z,56.40
2022-10-22T08:11:10.588Z,55.90
2022-10-22T08:13:42.720Z,55.70
2022-10-22T08:16:12.223Z,55.40
2022-10-22T08:18:40.696Z,55.00
2022-10-22T08:21:08.314Z,54.50
2022-10-22T08:23:35.685Z,54.20
2022-10-22T08:26:03.520Z,54.10
2022-10-22T08:28:32.958Z,53.40
2022-10-22T08:31:00.300Z,53.30
2022-10-22T08:33:27.553Z,53.10
2022-10-22T08:35:54.830Z,52.40
2022-10-22T08:38:22.519Z,51.80
2022-10-22T08:40:54.026Z,52.60
2022-10-22T08:43:43.814Z,52.20
2022-10-22T08:46:24.926Z,51.70
2022-10-22T08:48:55.080Z,52.30
2022-10-22T08:51:27.292Z,51.80
2022-10-22T08:54:12.750Z,52.00
2022-10-22T08:56:43.778Z,52.60
2022-10-22T08:59:23.359Z,51.40
2022-10-22T09:01:54.009Z,51.30
2022-10-22T09:04:53.229Z,51.60
2022-10-22T09:07:21.149Z,52.20
2022-10-22T09:09:52.455Z,51.80
2022-10-22T09:12:24.903Z,51.10
2022-10-22T09:14:52.253Z,50.50
2022-10-22T09:17:28.327Z,50.10
2022-10-22T09:20:38.901Z,49.70
2022-10-22T09:23:36.608Z,49.30
2022-10-22T09:26:16.006Z,48.60
2022-10-22T09:28:44.207Z,47.00
2022-10-22T09:31:13.858Z,46.70
2022-10-22T09:33:43.463Z,46.70
2022-10-22T09:36:18.477Z,46.00
2022-10-22T09:38:49.095Z,45.60
2022-10-22T09:41:17.276Z,45.00
2022-10-22T09:43:50.879Z,45.00
2022-10-22T09:46:20.959Z,44.30
2022-10-22T09:48:54.339Z,44.50
2022-10-22T09:51:37.182Z,44.20
2022-10-22T09:54:19.965Z,44.30
2022-10-22T09:57:05.856Z,44.40
2022-10-22T09:59:41.370Z,43.60
2022-10-22T10:02:26.566Z,43.80
2022-10-22T10:05:03.832Z,43.60
2022-10-22T10:07:33.835Z,43.10
2022-10-22T10:10:01.150Z,42.70
2022-10-22T10:12:38.234Z,42.80
2022-10-22T10:15:27.936Z,42.40
2022-10-22T10:17:58.267Z,42.50
2022-10-22T10:20:41.301Z,42.40
2022-10-22T10:23:25.466Z,42.50
2022-10-22T10:26:01.521Z,42.80
2022-10-22T10:28:31.794Z,42.30
2022-10-22T10:31:20.516Z,42.80
2022-10-22T10:34:09.388Z,42.50
2022-10-22T10:36:58.601Z,42.30
2022-10-22T10:39:40.713Z,42.20
2022-10-22T10:42:07.973Z,42.60
2022-10-22T10:44:41.251Z,42.70
2022-10-22T10:47:29.468Z,41.70
2022-10-22T10:50:16.424Z,40.80
2022-10-22T10:53:00.873Z,40.40
2022-10-22T10:55:41.138Z,40.20
2022-10-22T10:58:27.012Z,39.30
2022-10-22T11:01:00.290Z,39.10
2022-10-22T11:03:27.538Z,38.50
2022-10-22T11:06:09.520Z,38.10
2022-10-22T11:08:42.052Z,37.30
2022-10-22T11:14:18.629Z,35.10
2022-10-22T11:16:59.242Z,33.90
2022-10-22T11:19:51.830Z,33.20
2022-10-22T11:22:32.220Z,33.90
2022-10-22T11:25:23.556Z,34.50
2022-10-22T11:28:11.237Z,34.20
2022-10-22T11:30:40.806Z,33.30
2022-10-22T11:33:12.724Z,33.00
2022-10-22T11:35:44.204Z,32.70
2022-10-22T11:38:26.427Z,33.00
2022-10-22T11:41:07.478Z,32.30
2022-10-22T11:43:52.316Z,33.20
2022-10-22T11:46:19.493Z,33.30
2022-10-22T11:49:25.855Z,33.70
2022-10-22T11:52:21.797Z,33.20
2022-10-22T11:54:50.022Z,32.70
2022-10-22T11:57:17.202Z,32.40
2022-10-22T11:59:47.422Z,33.40
2022-10-22T12:02:41.228Z,33.30
2022-10-22T12:05:24.240Z,34.20
2022-10-22T12:08:21.933Z,33.90
2022-10-22T12:11:13.500Z,33.20
2022-10-22T12:13:58.787Z,33.10
2022-10-22T12:16:55.154Z,33.40
2022-10-22T12:19:23.116Z,34.40
2022-10-22T12:22:16.920Z,34.00
2022-10-22T12:24:54.089Z,33.40
2022-10-22T12:27:26.024Z,32.40
2022-10-22T12:29:58.470Z,32.50
2022-10-22T12:32:37.774Z,32.30
2022-10-22T12:35:15.428Z,32.30
2022-10-22T12:37:43.521Z,32.70
2022-10-22T12:40:22.109Z,34.30
2022-10-22T12:42:51.987Z,34.10
2022-10-22T12:45:20.061Z,34.70
2022-10-22T12:47:49.249Z,35.00
2022-10-22T12:50:19.623Z,34.90
2022-10-22T12:52:48.357Z,35.40
2022-10-22T12:55:22.441Z,36.00
2022-10-22T12:57:50.035Z,36.50
2022-10-22T13:00:23.550Z,37.20
2022-10-22T13:02:51.290Z,36.40
2022-10-22T13:05:28.195Z,36.60
2022-10-22T13:08:14.059Z,37.70
2022-10-22T13:10:49.278Z,39.20
2022-10-22T13:13:51.740Z,40.40
2022-10-22T13:16:24.888Z,41.00
2022-10-22T13:18:53.953Z,40.90
2022-10-22T13:21:23.786Z,41.10
2022-10-22T13:23:59.531Z,41.50
2022-10-22T13:26:37.878Z,41.10
2022-10-22T13:29:12.000Z,41.80
2022-10-22T13:31:49.003Z,51.20
2022-10-22T13:34:20.937Z,53.10
2022-10-22T13:36:49.203Z,53.60
2022-10-22T13:39:21.758Z,54.30
2022-10-22T13:41:51.731Z,55.10
2022-10-22T13:44:19.956Z,56.10
2022-10-22T13:46:48.691Z,55.70
2022-10-22T13:49:18.690Z,55.80
2022-10-22T13:51:46.989Z,55.80
2022-10-22T13:54:23.961Z,56.90
2022-10-22T13:56:51.159Z,56.50
2022-10-22T13:59:21.306Z,56.60
2022-10-22T14:01:51.823Z,57.40
2022-10-22T14:04:19.197Z,58.60
2022-10-22T14:06:46.326Z,58.40
2022-10-22T14:09:15.951Z,57.80
2022-10-22T14:11:43.356Z,57.30
2022-10-22T14:14:17.289Z,57.30
2022-10-22T14:16:45.016Z,57.50
2022-10-22T14:19:16.676Z,57.80
2022-10-22T14:21:44.312Z,58.90
2022-10-22T14:24:13.263Z,57.40
2022-10-22T14:26:41.066Z,59.90
2022-10-22T14:29:09.868Z,60.50
2022-10-22T14:31:44.083Z,59.70
2022-10-22T14:34:14.333Z,62.40
2022-10-22T14:36:44.060Z,63.10
2022-10-22T14:39:12.210Z,63.10
2022-10-22T14:41:39.701Z,62.80
2022-10-22T14:44:07.794Z,63.50
2022-10-22T14:46:34.926Z,64.00
2022-10-22T14:49:02.993Z,64.60
2022-10-22T14:51:30.100Z,65.10
2022-10-22T14:53:57.404Z,64.50
2022-10-22T14:56:24.755Z,65.20
2022-10-22T14:58:53.460Z,64.20
2022-10-22T15:01:20.734Z,65.20
2022-10-22T15:03:48.112Z,65.80
2022-10-22T15:06:15.333Z,67.30
2022-10-22T15:08:43.229Z,67.80
2022-10-22T15:11:13.955Z,67.50
2022-10-22T15:13:42.295Z,67.20
2022-10-22T15:16:11.569Z,66.40
2022-10-22T15:18:38.828Z,66.40
2022-10-22T15:21:13.239Z,66.50
2022-10-22T15:23:40.881Z,66.50
2022-10-22T15:26:09.802Z,67.10
2022-10-22T15:28:38.807Z,68.90
2022-10-22T15:31:07.094Z,69.50
2022-10-22T15:33:36.032Z,70.20
2022-10-22T15:36:15.534Z,70.60
2022-10-22T15:38:42.811Z,70.90
2022-10-22T15:41:13.574Z,71.10
2022-10-22T15:43:40.979Z,71.30
2022-10-22T15:46:19.725Z,71.20
2022-10-22T15:48:46.996Z,72.50
2022-10-22T15:51:17.415Z,73.20
2022-10-22T15:53:50.669Z,74.00
2022-10-22T15:56:18.009Z,75.10
2022-10-22T15:58:45.160Z,76.20
2022-10-22T16:01:14.227Z,76.90
2022-10-22T16:03:41.881Z,77.40
2022-10-22T16:06:09.788Z,78.20
2022-10-22T16:08:37.913Z,79.00
2022-10-22T16:11:05.766Z,79.40
2022-10-22T16:13:32.969Z,79.70
2022-10-22T16:16:07.161Z,80.00
2022-10-22T16:18:34.361Z,80.10
2022-10-22T16:21:01.653Z,79.60
2022-10-22T16:23:28.894Z,79.30
2022-10-22T16:25:56.151Z,79.10
2022-10-22T16:28:23.328Z,79.10
2022-10-22T16:30:50.685Z,77.90
2022-10-22T16:33:17.899Z,77.60
2022-10-22T16:35:45.018Z,77.50
2022-10-22T16:38:12.514Z,77.10
2022-10-22T16:40:40.151Z,77.00
2022-10-22T16:43:07.502Z,77.40
2022-10-22T16:45:34.654Z,76.90
2022-10-22T16:48:02.020Z,77.60
2022-10-22T16:50:29.345Z,77.40
2022-10-22T16:52:56.600Z,77.10
2022-10-22T16:55:23.770Z,76.00
2022-10-22T16:57:52.700Z,72.20
2022-10-22T17:00:20.667Z,71.40
2022-10-22T17:02:53.150Z,70.20
2022-10-22T17:05:21.325Z,70.00
2022-10-22T17:07:49.137Z,69.00
2022-10-22T17:10:17.258Z,69.20
2022-10-22T17:12:44.568Z,69.20
2022-10-22T17:15:12.491Z,69.50
2022-10-22T17:17:39.828Z,70.00
2022-10-22T17:20:07.654Z,69.90
2022-10-22T17:22:35.994Z,70.20
2022-10-22T17:25:16.397Z,70.30
2022-10-22T17:27:45.508Z,71.00
2022-10-22T17:30:16.986Z,71.10
2022-10-22T17:32:44.721Z,71.60
2022-10-22T17:35:14.589Z,71.80
2022-10-22T17:37:42.289Z,72.10
2022-10-22T17:40:10.221Z,72.50
2022-10-22T17:42:37.465Z,72.70
2022-10-22T17:45:05.173Z,72.80
2022-10-22T17:47:32.417Z,73.00
2022-10-22T17:49:59.752Z,73.40
2022-10-22T17:52:26.972Z,73.70
2022-10-22T17:54:54.959Z,74.10
2022-10-22T17:57:22.200Z,74.40
2022-10-22T17:59:49.551Z,74.60
2022-10-22T18:02:18.595Z,75.00
2022-10-22T18:04:46.049Z,75.10
2022-10-22T18:07:13.664Z,75.30
2022-10-22T18:09:42.920Z,75.40
2022-10-22T18:12:13.964Z,75.70
2022-10-22T18:14:41.558Z,75.70
2022-10-22T18:17:09.162Z,76.00
2022-10-22T18:19:37.402Z,75.90
2022-10-22T18:22:05.919Z,76.00
2022-10-22T18:24:33.038Z,76.20
2022-10-22T18:27:01.333Z,76.50
2022-10-22T18:29:29.243Z,76.90
2022-10-22T18:31:57.047Z,77.10
2022-10-22T18:34:25.204Z,77.30
2022-10-22T18:36:52.917Z,77.50
2022-10-22T18:39:20.744Z,77.80
2022-10-22T18:41:48.440Z,77.90
2022-10-22T18:44:15.914Z,78.00
2022-10-22T18:46:43.299Z,78.20
2022-10-22T18:49:18.408Z,78.10
2022-10-22T18:51:48.689Z,78.20
2022-10-22T18:54:23.071Z,78.10
2022-10-22T18:56:51.074Z,78.30
2022-10-22T18:59:23.631Z,78.70
2022-10-22T19:01:53.180Z,78.70
2022-10-22T19:04:20.642Z,78.70
2022-10-22T19:06:48.469Z,79.10
2022-10-22T19:09:16.817Z,79.20
2022-10-22T19:11:45.263Z,79.40
2022-10-22T19:14:14.891Z,79.40
2022-10-22T19:16:42.445Z,79.50
2022-10-22T19:19:09.674Z,79.80
2022-10-22T19:21:38.257Z,80.00
2022-10-22T19:24:06.001Z,80.10
2022-10-22T19:26:33.161Z,80.00
2022-10-22T19:29:00.741Z,80.30
2022-10-22T19:31:32.861Z,80.40
2022-10-22T19:34:03.101Z,80.70
2022-10-22T19:36:32.872Z,80.80
2022-10-22T19:39:00.546Z,81.20
2022-10-22T19:41:29.051Z,81.40
2022-10-22T19:43:57.854Z,81.40
2022-10-22T19:46:27.007Z,81.60
2022-10-22T19:48:57.124Z,82.00
2022-10-22T19:51:30.255Z,82.10
2022-10-22T19:54:03.381Z,82.30
2022-10-22T19:56:31.152Z,82.40
2022-10-22T19:58:59.070Z,82.60
2022-10-22T20:01:27.135Z,82.70
2022-10-22T20:03:55.899Z,83.00
2022-10-22T20:06:23.488Z,83.00
2022-10-22T20:08:55.173Z,82.90
2022-10-22T20:11:29.049Z,83.50
2022-10-22T20:13:59.764Z,83.60
2022-10-22T20:16:30.345Z,83.40
2022-10-22T20:19:05.034Z,83.60
2022-10-22T20:21:44.065Z,83.80
2022-10-22T20:24:15.524Z,83.80
2022-10-22T20:26:46.837Z,84.00
2022-10-22T20:29:16.318Z,84.10
2022-10-22T20:31:43.822Z,84.10
2022-10-22T20:40:02.376Z,84.50
2022-10-22T20:42:32.172Z,84.80
2022-10-22T20:44:59.554Z,84.80
2022-10-22T20:47:39.372Z,85.00
2022-10-22T20:50:19.049Z,85.20
2022-10-22T20:52:47.883Z,85.30
2022-10-22T20:57:49.332Z,85.30
2022-10-22T21:00:17.137Z,85.50
2022-10-22T21:02:44.998Z,85.20
2022-10-22T21:05:13.672Z,84.70
2022-10-22T21:07:42.719Z,84.90
2022-10-22T21:10:11.378Z,85.10
2022-10-22T21:12:44.819Z,85.20
2022-10-22T21:15:18.924Z,85.40
2022-10-22T21:17:47.701Z,85.30
2022-10-22T21:20:17.855Z,85.40
2022-10-22T21:22:49.418Z,85.50
2022-10-22T21:25:18.897Z,85.60
2022-10-22T21:27:46.689Z,85.50
2022-10-22T21:30:14.305Z,85.60
2022-10-22T21:32:44.798Z,85.80
2022-10-22T21:35:18.592Z,85.90
2022-10-22T21:37:46.002Z,86.00
2022-10-22T21:40:14.181Z,86.20
2022-10-22T21:48:04.686Z,86.30
2022-10-22T21:50:33.092Z,86.30
2022-10-22T21:53:00.564Z,86.40
2022-10-22T21:55:44.946Z,86.20
2022-10-22T21:58:12.777Z,86.20
2022-10-22T22:00:40.428Z,86.50
2022-10-22T22:03:29.789Z,86.60
2022-10-22T22:06:04.817Z,86.70
2022-10-22T22:08:33.564Z,86.80
2022-10-22T22:11:17.572Z,87.00
2022-10-22T22:13:46.123Z,87.00
2022-10-22T22:16:22.442Z,86.90
2022-10-22T22:18:55.029Z,86.80
2022-10-22T22:21:23.257Z,86.70
2022-10-22T22:23:51.194Z,86.60
2022-10-22T22:26:25.410Z,86.40
2022-10-22T22:28:57.215Z,86.50
2022-10-22T22:31:27.570Z,86.40
2022-10-22T22:34:09.232Z,86.60
2022-10-22T22:36:41.976Z,86.80
2022-10-22T22:39:12.392Z,86.90
2022-10-22T22:41:41.297Z,87.10
2022-10-22T22:44:08.739Z,86.40
2022-10-22T22:46:36.391Z,85.90
2022-10-22T22:49:04.529Z,84.80
2022-10-22T22:51:32.040Z,84.00
2022-10-22T22:54:01.485Z,83.60
2022-10-22T22:56:33.685Z,82.00
2022-10-22T22:59:01.515Z,81.80
2022-10-22T23:01:35.570Z,81.30
2022-10-22T23:04:02.782Z,81.00
2022-10-22T23:06:37.320Z,80.60
2022-10-22T23:09:07.009Z,80.30
2022-10-22T23:11:34.652Z,80.40
2022-10-22T23:14:05.578Z,80.30
2022-10-22T23:16:38.210Z,80.00
2022-10-22T23:19:08.276Z,79.70
2022-10-22T23:21:39.564Z,79.50
2022-10-22T23:24:09.549Z,79.50
2022-10-22T23:26:39.872Z,79.20
2022-10-22T23:29:16.705Z,79.00
2022-10-22T23:31:45.263Z,78.40
2022-10-22T23:34:16.793Z,78.50
2022-10-22T23:36:44.679Z,78.30
2022-10-22T23:39:15.869Z,77.90
2022-10-22T23:41:43.268Z,77.70
2022-10-22T23:44:11.362Z,77.30
2022-10-22T23:46:39.000Z,77.10
2022-10-22T23:49:08.326Z,77.10
2022-10-22T23:51:36.142Z,76.90
2022-10-22T23:54:07.051Z,76.90
2022-10-22T23:56:34.473Z,77.30
2022-10-22T23:59:02.241Z,77.50
